Time;durP1;ratioP1;P1;durP2;ratioP2;P2;SDS_P1;SDS_P2;PMS_P1;PMS_P2;Temp;Humidity;BMP_temperature;BMP_pressure;BME280_temperature;BME280_humidity;BME280_pressure;Samples;Min_cycle;Max_cycle;Signal;HPM_P1;HPM_P2
2022/05/12 00:02:18;;;;;;;10.23;1.98;;;30.10;14.20;;;;;;5014730;28;20060;-65
2022/05/12 00:04:45;;;;;;;6.30;1.73;;;30.00;14.10;;;;;;5015656;28;20037;-63
2022/05/12 00:07:11;;;;;;;7.55;1.58;;;30.00;14.20;;;;;;5017063;28;20063;-66
2022/05/12 00:09:37;;;;;;;6.70;1.40;;;30.00;13.80;;;;;;5014076;28;20038;-65
2022/05/12 00:12:05;;;;;;;12.48;1.83;;;29.80;13.70;;;;;;5013660;28;20491;-63
2022/05/12 00:14:31;;;;;;;8.38;1.65;;;29.80;13.60;;;;;;5018554;28;20420;-67
2022/05/12 00:16:58;;;;;;;5.32;1.40;;;29.80;13.70;;;;;;5018512;28;20070;-66
2022/05/12 00:19:29;;;;;;;9.80;1.90;;;29.70;13.70;;;;;;5003840;28;20135;-66
2022/05/12 00:21:56;;;;;;;80.95;4.82;;;29.70;13.70;;;;;;5013503;28;20070;-65
2022/05/12 00:24:23;;;;;;;11.38;2.05;;;29.70;13.90;;;;;;5018626;28;20029;-67
2022/05/12 00:26:49;;;;;;;7.90;1.42;;;29.50;14.10;;;;;;5015014;28;20068;-65
2022/05/12 00:29:16;;;;;;;18.58;1.90;;;29.40;14.20;;;;;;5020823;28;20075;-69
2022/05/12 00:31:44;;;;;;;10.48;1.45;;;29.50;14.30;;;;;;5016001;28;20065;-65
2022/05/12 00:34:13;;;;;;;21.75;2.30;;;29.50;14.20;;;;;;5017574;28;20520;-65
2022/05/12 00:36:39;;;;;;;94.93;5.95;;;29.50;14.10;;;;;;5014973;28;20131;-64
2022/05/12 00:39:06;;;;;;;54.45;3.90;;;29.50;14.30;;;;;;5016890;28;20218;-65
2022/05/12 00:41:33;;;;;;;6.65;1.48;;;29.40;14.30;;;;;;5012161;28;20137;-63
2022/05/12 00:44:05;;;;;;;171.05;10.48;;;29.30;14.40;;;;;;5014115;28;20110;-64
2022/05/12 00:46:37;;;;;;;8.70;1.70;;;29.30;14.80;;;;;;5016863;28;20050;-65
2022/05/12 00:49:30;;;;;;;6.15;1.58;;;29.40;14.50;;;;;;5012940;28;20072;-65
2022/05/12 00:52:23;;;;;;;6.22;1.60;;;29.30;14.60;;;;;;5015776;28;20050;-61
2022/05/12 00:54:54;;;;;;;9.88;1.83;;;29.10;14.70;;;;;;5020869;28;20067;-65
2022/05/12 00:57:39;;;;;;;98.35;8.13;;;29.00;14.70;;;;;;5014373;28;20443;-65
2022/05/12 01:00:08;;;;;;;104.18;6.47;;;28.80;14.80;;;;;;5018932;28;20069;-64
2022/05/12 01:02:36;;;;;;;276.50;20.63;;;28.80;16.00;;;;;;5013248;28;20077;-66
2022/05/12 01:05:04;;;;;;;15.23;2.10;;;28.60;21.00;;;;;;5011581;28;20056;-63
2022/05/12 01:07:30;;;;;;;13.55;2.00;;;28.40;19.40;;;;;;5012020;28;20071;-64
2022/05/12 01:09:57;;;;;;;33.05;4.72;;;28.30;19.40;;;;;;5006419;28;20656;-67
2022/05/12 01:12:24;;;;;;;34.13;3.08;;;28.20;22.00;;;;;;5016553;28;20514;-62
2022/05/12 01:14:50;;;;;;;15.55;3.33;;;27.70;23.80;;;;;;5017412;28;20080;-67
2022/05/12 01:17:19;;;;;;;21.60;3.08;;;27.70;23.60;;;;;;5021050;28;20087;-66
2022/05/12 01:19:48;;;;;;;16.70;2.20;;;27.40;21.80;;;;;;5015328;28;20094;-69
2022/05/12 01:22:53;;;;;;;19.48;2.35;;;27.20;23.30;;;;;;5020758;28;20155;-67
2022/05/12 01:25:23;;;;;;;13.25;2.22;;;27.10;21.60;;;;;;4971582;28;20155;-67
2022/05/12 01:27:49;;;;;;;13.10;1.67;;;27.00;21.20;;;;;;4977999;28;20095;-67
2022/05/12 01:30:19;;;;;;;12.73;2.05;;;26.80;20.50;;;;;;4980765;28;20118;-67
2022/05/12 01:32:49;;;;;;;12.73;2.53;;;26.70;20.30;;;;;;4971575;28;20076;-66
2022/05/12 01:35:19;;;;;;;6.18;1.77;;;26.60;22.20;;;;;;4979714;28;20066;-67
2022/05/12 01:37:46;;;;;;;18.75;2.33;;;26.60;20.00;;;;;;4976592;28;20077;-67
2022/05/12 01:40:20;;;;;;;7.38;1.60;;;26.60;20.30;;;;;;4978410;28;20625;-68
2022/05/12 01:42:47;;;;;;;8.40;1.88;;;26.50;20.00;;;;;;4961559;28;20130;-64
2022/05/12 01:45:15;;;;;;;12.25;1.80;;;26.50;20.50;;;;;;4977283;28;20080;-64
2022/05/12 01:47:43;;;;;;;10.52;5.35;;;26.60;20.00;;;;;;4966569;28;20456;-65
2022/05/12 01:50:11;;;;;;;13.77;2.40;;;26.70;19.90;;;;;;4963980;28;20087;-67
2022/05/12 01:52:43;;;;;;;7.47;1.73;;;26.50;20.30;;;;;;4973164;28;20104;-67
2022/05/12 01:55:11;;;;;;;15.38;2.25;;;26.40;20.00;;;;;;4978259;28;20077;-65
2022/05/12 01:57:37;;;;;;;55.53;6.50;;;26.20;20.50;;;;;;4962061;28;20171;-66
2022/05/12 02:00:07;;;;;;;8.50;1.70;;;26.10;20.50;;;;;;5013421;28;20144;-65
2022/05/12 02:02:34;;;;;;;14.10;1.80;;;26.10;20.90;;;;;;5032933;28;20072;-64
2022/05/12 02:05:00;;;;;;;15.43;2.20;;;25.90;20.80;;;;;;5015017;28;20087;-64
2022/05/12 02:07:26;;;;;;;12.02;1.98;;;25.90;21.10;;;;;;5043295;28;20433;-64
2022/05/12 02:09:53;;;;;;;18.42;3.42;;;25.80;21.50;;;;;;5018732;28;20068;-65
2022/05/12 02:12:19;;;;;;;15.73;1.90;;;25.70;21.30;;;;;;5013500;28;20123;-64
2022/05/12 02:14:46;;;;;;;9.98;2.38;;;25.50;21.60;;;;;;5013177;28;20481;-64
2022/05/12 02:17:12;;;;;;;11.02;1.98;;;25.40;21.80;;;;;;5012074;28;20068;-64
2022/05/12 02:19:39;;;;;;;14.07;2.17;;;25.30;22.00;;;;;;5018257;28;20553;-64
2022/05/12 02:22:06;;;;;;;12.65;2.80;;;25.30;22.30;;;;;;5017313;28;20481;-66
2022/05/12 02:24:33;;;;;;;13.13;2.35;;;25.20;23.10;;;;;;5015115;28;20089;-65
2022/05/12 02:26:59;;;;;;;15.23;2.03;;;25.10;22.80;;;;;;5023843;28;20113;-64
2022/05/12 02:29:26;;;;;;;16.35;2.00;;;25.00;22.40;;;;;;5015991;28;20119;-64
2022/05/12 02:31:53;;;;;;;14.57;2.08;;;24.90;22.60;;;;;;5019970;28;20074;-62
2022/05/12 02:34:19;;;;;;;12.38;2.15;;;24.80;22.90;;;;;;5014705;28;20068;-62
2022/05/12 02:36:59;;;;;;;9.32;2.30;;;24.70;22.90;;;;;;5016196;28;20448;-63
2022/05/12 02:39:40;;;;;;;15.02;2.58;;;24.70;23.20;;;;;;5012629;28;20073;-63
2022/05/12 02:42:09;;;;;;;16.85;2.72;;;24.70;22.70;;;;;;5021290;28;20073;-62
2022/05/12 02:44:36;;;;;;;7.57;2.40;;;24.60;23.00;;;;;;5020252;28;20179;-64
2022/05/12 02:47:04;;;;;;;13.20;2.65;;;24.50;24.40;;;;;;5019704;28;20076;-64
2022/05/12 02:49:31;;;;;;;26.42;2.22;;;24.50;24.70;;;;;;5015773;28;20085;-63
2022/05/12 02:51:58;;;;;;;8.40;2.00;;;24.40;23.30;;;;;;5012884;28;20069;-64
2022/05/12 02:54:24;;;;;;;10.27;2.33;;;24.30;23.50;;;;;;5013578;28;20111;-63
2022/05/12 02:56:52;;;;;;;10.25;2.10;;;24.20;23.80;;;;;;5012464;28;20065;-65
2022/05/12 02:59:18;;;;;;;15.40;2.22;;;24.20;24.40;;;;;;5028573;28;20152;-68
2022/05/12 03:01:45;;;;;;;14.18;2.17;;;24.10;23.80;;;;;;5015684;28;20123;-68
2022/05/12 03:04:11;;;;;;;14.10;2.63;;;24.00;23.60;;;;;;5017641;28;20074;-69
2022/05/12 03:06:38;;;;;;;14.65;2.63;;;23.90;23.40;;;;;;5013187;28;20200;-64
2022/05/12 03:09:05;;;;;;;43.03;3.67;;;23.90;23.30;;;;;;5012290;28;20546;-67
2022/05/12 03:11:32;;;;;;;10.38;2.42;;;23.80;23.10;;;;;;5018185;28;20580;-66
2022/05/12 03:13:59;;;;;;;10.57;2.97;;;23.80;23.10;;;;;;5013672;28;20096;-69
2022/05/12 03:16:26;;;;;;;14.07;2.40;;;23.80;23.10;;;;;;5014423;28;20077;-66
2022/05/12 03:18:53;;;;;;;17.13;2.90;;;23.80;23.20;;;;;;5015792;28;20144;-67
2022/05/12 03:21:23;;;;;;;12.25;2.70;;;23.70;23.30;;;;;;5016335;28;20928;-66
2022/05/12 03:23:50;;;;;;;10.55;2.20;;;23.70;23.50;;;;;;5015535;28;20073;-65
2022/05/12 03:26:17;;;;;;;11.75;2.50;;;23.60;23.70;;;;;;5016281;28;20078;-66
2022/05/12 03:28:43;;;;;;;11.82;2.60;;;23.60;23.90;;;;;;5019592;28;20543;-65
2022/05/12 03:31:10;;;;;;;15.05;3.10;;;23.60;24.30;;;;;;5018467;28;20514;-65
2022/05/12 03:33:37;;;;;;;10.77;2.20;;;23.50;24.50;;;;;;5015090;28;20431;-67
2022/05/12 03:36:05;;;;;;;7.90;2.10;;;23.40;24.90;;;;;;5011244;28;20147;-66
2022/05/12 03:38:32;;;;;;;13.05;2.90;;;23.40;25.10;;;;;;5012295;28;20173;-63
2022/05/12 03:40:58;;;;;;;12.50;2.75;;;23.40;25.40;;;;;;5014835;28;20714;-64
2022/05/12 03:46:12;;;;;;;12.98;2.60;;;23.20;25.80;;;;;;5022554;28;20534;-66
2022/05/12 03:48:40;;;;;;;13.82;4.05;;;23.20;26.50;;;;;;5012343;28;20185;-64
2022/05/12 03:51:07;;;;;;;14.25;3.03;;;23.10;26.20;;;;;;5010951;28;20070;-65
2022/05/12 03:53:35;;;;;;;10.10;2.30;;;23.00;26.50;;;;;;5013812;28;20136;-64
2022/05/12 03:56:02;;;;;;;13.50;2.50;;;23.00;26.50;;;;;;5013883;28;20625;-63
2022/05/12 03:58:29;;;;;;;11.88;2.33;;;23.00;26.80;;;;;;5009624;28;20482;-64
2022/05/12 04:00:56;;;;;;;12.60;4.50;;;22.90;26.90;;;;;;5011122;28;20546;-65
2022/05/12 04:03:22;;;;;;;11.55;2.53;;;22.80;27.20;;;;;;5012574;28;20072;-64
2022/05/12 04:05:49;;;;;;;16.48;2.80;;;22.80;27.50;;;;;;5014844;28;20112;-64
2022/05/12 04:08:15;;;;;;;14.85;2.78;;;22.80;27.70;;;;;;5014893;28;20089;-64
2022/05/12 04:10:42;;;;;;;15.77;2.50;;;22.80;27.60;;;;;;5015085;28;20097;-66
2022/05/12 04:13:09;;;;;;;17.92;3.17;;;22.70;27.70;;;;;;5004416;28;20160;-63
2022/05/12 04:15:35;;;;;;;9.93;2.72;;;22.60;27.90;;;;;;5001686;28;20072;-66
2022/05/12 04:18:05;;;;;;;11.90;2.78;;;22.60;28.00;;;;;;4993879;28;20096;-66
2022/05/12 04:20:34;;;;;;;18.83;2.92;;;22.60;28.20;;;;;;5043025;28;20127;-66
2022/05/12 04:23:00;;;;;;;24.83;3.63;;;22.50;28.20;;;;;;5011804;28;20075;-66
2022/05/12 04:25:27;;;;;;;14.43;3.20;;;22.40;28.40;;;;;;5015443;28;20424;-65
2022/05/12 04:27:53;;;;;;;9.02;3.10;;;22.30;28.70;;;;;;5015368;28;20104;-63
2022/05/12 04:30:24;;;;;;;13.35;3.03;;;22.30;28.70;;;;;;5015290;28;20073;-64
2022/05/12 04:32:51;;;;;;;11.45;3.05;;;22.30;28.80;;;;;;5020444;28;20069;-63
2022/05/12 04:35:18;;;;;;;34.50;3.63;;;22.30;28.80;;;;;;5012000;28;20135;-66
2022/05/12 04:37:51;;;;;;;13.27;3.15;;;22.30;28.80;;;;;;5012971;28;20077;-66
2022/05/12 04:40:20;;;;;;;15.85;4.15;;;22.50;28.80;;;;;;5014096;28;20072;-63
2022/05/12 04:42:51;;;;;;;11.93;3.75;;;22.60;28.60;;;;;;5017495;28;20527;-64
2022/05/12 04:45:19;;;;;;;11.30;3.22;;;22.60;28.60;;;;;;5014662;28;20127;-67
2022/05/12 04:47:46;;;;;;;14.95;3.10;;;22.70;28.70;;;;;;5016591;28;20121;-64
2022/05/12 04:50:21;;;;;;;9.70;2.97;;;22.60;28.60;;;;;;5012910;28;20081;-64
2022/05/12 04:52:47;;;;;;;17.10;3.80;;;22.70;28.80;;;;;;5013630;28;20116;-62
2022/05/12 04:55:15;;;;;;;17.15;4.20;;;22.50;28.90;;;;;;5013591;28;20084;-66
2022/05/12 04:57:43;;;;;;;13.85;4.13;;;22.60;28.90;;;;;;5012754;28;20107;-64
2022/05/12 05:00:14;;;;;;;14.35;3.60;;;22.50;28.90;;;;;;5010300;28;20096;-65
2022/05/12 05:02:41;;;;;;;13.20;3.25;;;22.50;29.00;;;;;;5011323;28;20076;-64
2022/05/12 05:05:09;;;;;;;11.77;3.15;;;22.50;29.10;;;;;;5022918;28;20081;-64
2022/05/12 05:07:36;;;;;;;16.10;3.80;;;22.60;29.10;;;;;;5013351;28;20475;-67
2022/05/12 05:10:04;;;;;;;17.27;3.65;;;22.50;29.10;;;;;;5041469;28;20567;-63
2022/05/12 05:12:31;;;;;;;7.97;2.72;;;22.20;29.30;;;;;;5013953;28;20554;-64
2022/05/12 05:14:58;;;;;;;14.85;2.95;;;22.20;29.70;;;;;;5011231;28;20211;-66
2022/05/12 05:17:24;;;;;;;9.00;3.22;;;22.20;29.60;;;;;;5027845;28;20072;-63
2022/05/12 05:19:51;;;;;;;17.20;4.15;;;22.20;29.70;;;;;;5013818;28;20073;-64
2022/05/12 05:22:18;;;;;;;11.85;4.40;;;22.00;29.80;;;;;;5014032;28;20073;-63
2022/05/12 05:24:44;;;;;;;12.25;4.10;;;22.00;29.90;;;;;;5013162;28;20563;-64
2022/05/12 05:27:10;;;;;;;11.10;2.92;;;22.10;29.70;;;;;;5013211;28;20279;-67
2022/05/12 05:29:43;;;;;;;9.65;3.47;;;22.10;29.70;;;;;;5004630;28;20747;-64
2022/05/12 05:32:11;;;;;;;9.45;2.45;;;22.00;30.00;;;;;;5011790;28;20081;-63
2022/05/12 05:34:37;;;;;;;15.63;2.60;;;21.80;30.10;;;;;;5009768;28;20554;-65
2022/05/12 05:37:04;;;;;;;16.27;2.90;;;21.80;30.10;;;;;;5011318;28;20530;-64
2022/05/12 05:39:31;;;;;;;8.20;1.98;;;21.70;30.20;;;;;;5011465;28;20080;-64
2022/05/12 05:42:05;;;;;;;8.43;2.00;;;21.50;30.50;;;;;;5010175;28;20105;-64
2022/05/12 05:44:34;;;;;;;10.70;2.22;;;21.60;30.70;;;;;;5019235;28;20146;-66
2022/05/12 05:47:02;;;;;;;8.32;1.90;;;21.60;30.50;;;;;;5012643;28;20097;-65
2022/05/12 05:49:29;;;;;;;7.13;2.10;;;21.70;30.30;;;;;;5010447;28;20101;-64
2022/05/12 05:54:42;;;;;;;8.75;2.30;;;21.60;30.00;;;;;;5011802;28;20120;-65
2022/05/12 05:57:09;;;;;;;20.40;9.05;;;21.50;30.00;;;;;;5012797;28;20542;-62
2022/05/12 05:59:36;;;;;;;8.75;2.28;;;21.50;30.00;;;;;;4999885;28;20131;-62
2022/05/12 06:02:04;;;;;;;8.93;1.95;;;21.50;29.90;;;;;;5029282;28;20112;-64
2022/05/12 06:04:30;;;;;;;13.88;1.98;;;21.40;29.60;;;;;;5019287;28;20518;-65
2022/05/12 06:06:57;;;;;;;10.57;1.90;;;21.50;29.70;;;;;;5013758;28;20084;-64
2022/05/12 06:09:24;;;;;;;7.97;1.90;;;21.40;29.20;;;;;;5015269;28;20104;-64
2022/05/12 06:11:50;;;;;;;9.25;1.90;;;21.40;29.10;;;;;;5022267;28;20118;-68
2022/05/12 06:14:17;;;;;;;15.43;2.08;;;21.40;29.10;;;;;;5023020;28;20600;-64
2022/05/12 06:16:43;;;;;;;8.70;1.77;;;21.40;29.10;;;;;;5023878;28;20069;-63
2022/05/12 06:19:10;;;;;;;10.00;1.92;;;21.30;29.40;;;;;;5023566;28;20077;-63
2022/05/12 06:21:37;;;;;;;8.77;2.30;;;21.20;29.30;;;;;;5023113;28;20081;-63
2022/05/12 06:24:04;;;;;;;12.23;2.30;;;21.20;29.30;;;;;;5025316;28;20119;-65
2022/05/12 06:26:31;;;;;;;14.10;1.60;;;21.20;29.30;;;;;;5023489;28;20093;-63
2022/05/12 06:28:58;;;;;;;10.07;2.22;;;21.10;29.20;;;;;;5022709;28;20093;-65
2022/05/12 06:31:25;;;;;;;9.70;2.58;;;21.10;29.30;;;;;;5022142;28;20119;-64
2022/05/12 06:33:53;;;;;;;10.05;2.20;;;21.00;29.50;;;;;;4994761;28;20073;-63
2022/05/12 06:36:20;;;;;;;11.50;2.10;;;21.00;29.60;;;;;;5025628;28;20185;-65
2022/05/12 06:38:47;;;;;;;14.25;1.88;;;20.90;29.70;;;;;;5027125;28;20076;-63
2022/05/12 06:41:14;;;;;;;9.95;2.10;;;20.90;29.80;;;;;;4993526;28;20083;-63
2022/05/12 06:43:45;;;;;;;9.73;2.28;;;20.90;29.90;;;;;;5007247;28;20605;-64
2022/05/12 06:46:17;;;;;;;14.63;2.30;;;20.80;30.10;;;;;;5025994;28;20073;-64
2022/05/12 06:48:44;;;;;;;23.75;3.15;;;20.70;30.30;;;;;;5034126;28;20172;-58
2022/05/12 06:51:11;;;;;;;12.18;2.20;;;20.70;30.30;;;;;;5026646;28;20473;-64
2022/05/12 06:53:38;;;;;;;12.32;2.10;;;20.70;30.50;;;;;;5019326;28;20497;-64
2022/05/12 06:56:05;;;;;;;17.80;2.30;;;20.60;30.80;;;;;;5023329;28;20069;-63
2022/05/12 06:58:32;;;;;;;15.57;2.22;;;20.50;30.80;;;;;;5022045;28;20100;-65
2022/05/12 07:01:00;;;;;;;13.18;1.90;;;20.50;31.10;;;;;;5024530;28;20659;-63
2022/05/12 07:03:27;;;;;;;12.05;1.75;;;20.40;31.10;;;;;;5023741;28;20160;-64
2022/05/12 07:05:54;;;;;;;11.45;1.90;;;20.40;31.00;;;;;;5021352;28;20520;-64
2022/05/12 07:08:20;;;;;;;13.43;1.90;;;20.40;31.10;;;;;;5022989;28;20095;-63
2022/05/12 07:10:47;;;;;;;16.10;2.47;;;20.30;31.30;;;;;;5005797;28;20074;-62
2022/05/12 07:13:19;;;;;;;;;;;20.30;31.50;;;;;;5006089;28;20167;-64
2022/05/12 07:15:49;;;;;;;17.42;2.72;;;20.30;31.60;;;;;;5021178;28;20411;-64
2022/05/12 07:18:18;;;;;;;14.90;2.53;;;20.30;31.70;;;;;;5021529;28;20122;-65
2022/05/12 07:28:59;;;;;;;20.48;2.22;;;20.20;31.80;;;;;;5021929;28;20115;-65
2022/05/12 07:31:25;;;;;;;21.17;2.75;;;20.20;31.30;;;;;;5005885;28;20107;-61
2022/05/12 07:33:52;;;;;;;15.18;1.83;;;20.10;31.00;;;;;;5022271;28;20081;-61
2022/05/12 07:36:25;;;;;;;21.05;2.42;;;20.10;30.90;;;;;;5021257;28;20461;-62
2022/05/12 07:38:53;;;;;;;18.85;2.13;;;20.00;30.80;;;;;;5009438;28;20077;-62
2022/05/12 07:41:20;;;;;;;11.45;1.70;;;20.00;30.70;;;;;;5021373;28;20127;-65
2022/05/12 07:43:47;;;;;;;17.90;2.53;;;19.90;30.70;;;;;;5023630;28;20101;-63
2022/05/12 07:46:17;;;;;;;21.08;2.75;;;20.00;30.80;;;;;;5022458;28;20061;-62
2022/05/12 07:48:44;;;;;;;21.10;2.13;;;19.90;30.90;;;;;;5020787;28;20620;-62
2022/05/12 07:51:11;;;;;;;12.68;2.17;;;19.90;31.00;;;;;;5021822;28;20096;-62
2022/05/12 07:53:39;;;;;;;15.75;1.98;;;19.90;31.10;;;;;;5021039;28;20156;-66
2022/05/12 07:56:06;;;;;;;18.75;2.10;;;19.90;31.10;;;;;;5022362;28;20076;-63
2022/05/12 07:58:33;;;;;;;19.17;2.38;;;19.80;31.30;;;;;;5008363;28;20084;-62
2022/05/12 08:01:00;;;;;;;9.52;2.08;;;19.80;30.90;;;;;;5004195;28;20076;-62
2022/05/12 08:03:27;;;;;;;11.38;2.47;;;19.70;30.90;;;;;;5023568;28;20073;-60
2022/05/12 08:05:54;;;;;;;12.60;1.73;;;19.70;30.50;;;;;;5018336;28;20080;-64
2022/05/12 08:08:21;;;;;;;17.42;1.80;;;19.70;30.40;;;;;;5023680;28;20501;-62
2022/05/12 08:10:47;;;;;;;12.25;1.88;;;19.70;30.40;;;;;;5024207;28;20073;-62
2022/05/12 08:13:17;;;;;;;12.43;1.90;;;19.60;30.80;;;;;;5022280;28;20139;-62
2022/05/12 08:15:46;;;;;;;7.18;1.52;;;19.60;30.80;;;;;;5021921;28;20163;-62
2022/05/12 08:18:16;;;;;;;11.95;2.03;;;19.60;31.00;;;;;;5020448;28;20077;-64
2022/05/12 08:20:44;;;;;;;10.77;2.08;;;19.50;31.20;;;;;;5019672;28;20103;-62
2022/05/12 08:23:11;;;;;;;7.63;1.85;;;19.60;31.30;;;;;;5003535;28;20155;-62
2022/05/12 08:25:38;;;;;;;8.02;1.65;;;19.60;31.40;;;;;;5005624;28;20454;-62
2022/05/12 08:28:06;;;;;;;8.32;2.25;;;19.50;31.60;;;;;;5021604;28;20089;-62
2022/05/12 08:30:32;;;;;;;9.57;1.73;;;19.40;31.70;;;;;;5045784;28;20080;-63
2022/05/12 08:32:59;;;;;;;10.45;2.20;;;19.40;31.70;;;;;;5045340;28;20072;-63
2022/05/12 08:35:26;;;;;;;13.43;1.83;;;19.40;31.20;;;;;;5021322;28;20077;-65
2022/05/12 08:37:53;;;;;;;10.50;1.88;;;19.30;31.30;;;;;;5004268;28;20069;-63
2022/05/12 08:40:43;;;;;;;9.95;2.17;;;19.30;31.30;;;;;;5017859;28;20143;-66
2022/05/12 08:43:15;;;;;;;7.13;1.98;;;19.20;31.70;;;;;;5019614;28;20073;-65
2022/05/12 08:45:43;;;;;;;15.45;2.35;;;19.20;32.00;;;;;;5021790;28;20073;-66
2022/05/12 08:48:12;;;;;;;9.07;1.67;;;19.20;32.30;;;;;;5015697;28;20502;-61
2022/05/12 08:50:40;;;;;;;16.08;2.50;;;19.10;32.20;;;;;;5018393;28;20080;-64
2022/05/12 08:53:20;;;;;;;7.53;2.20;;;19.10;32.50;;;;;;5021868;28;20116;-62
2022/05/12 08:55:51;;;;;;;12.55;2.05;;;19.10;32.50;;;;;;5017337;28;20065;-62
2022/05/12 08:58:30;;;;;;;13.05;2.10;;;19.00;32.90;;;;;;5005780;28;20466;-61
2022/05/12 09:01:13;;;;;;;21.67;2.58;;;18.80;33.10;;;;;;5021449;28;20067;-64
2022/05/12 09:03:49;;;;;;;10.32;2.40;;;18.90;33.10;;;;;;4993744;28;20837;-62
2022/05/12 09:06:42;;;;;;;10.60;2.03;;;18.80;33.30;;;;;;5019923;28;20096;-65
2022/05/12 09:09:14;;;;;;;15.20;2.65;;;18.60;33.50;;;;;;4999281;28;20591;-63
2022/05/12 09:11:50;;;;;;;10.63;2.10;;;18.60;33.70;;;;;;5020779;28;20077;-64
2022/05/12 09:14:40;;;;;;;11.32;2.28;;;18.50;33.60;;;;;;5020551;28;20073;-63
2022/05/12 09:17:11;;;;;;;13.63;1.95;;;18.50;33.40;;;;;;5018926;28;20084;-63
2022/05/12 09:19:37;;;;;;;10.25;1.75;;;18.40;33.60;;;;;;5033343;28;20088;-65
2022/05/12 09:22:04;;;;;;;11.32;1.70;;;18.50;33.70;;;;;;5018395;28;20110;-63
2022/05/12 09:24:30;;;;;;;;;;;18.40;33.50;;;;;;5020875;28;20119;-62
2022/05/12 09:27:09;;;;;;;10.00;2.00;;;18.40;33.50;;;;;;5019103;28;19957;-63
2022/05/12 09:30:04;;;;;;;7.32;1.55;;;18.30;33.60;;;;;;5018901;28;20159;-62
2022/05/12 09:32:38;;;;;;;8.15;2.40;;;18.30;33.60;;;;;;5018679;28;20176;-63
2022/05/12 09:35:20;;;;;;;14.70;1.85;;;18.30;33.30;;;;;;5019568;28;20069;-66
2022/05/12 09:37:47;;;;;;;13.45;2.38;;;18.20;33.30;;;;;;5044546;28;20092;-62
2022/05/12 09:40:20;;;;;;;9.88;2.28;;;18.10;33.10;;;;;;5023054;28;20077;-65
2022/05/12 09:42:50;;;;;;;17.30;2.20;;;18.00;33.10;;;;;;5022446;28;20079;-63
2022/05/12 09:45:20;;;;;;;12.65;2.15;;;18.00;33.30;;;;;;5025070;28;20073;-64
2022/05/12 09:47:46;;;;;;;10.15;2.08;;;17.90;34.00;;;;;;5025783;28;20111;-64
2022/05/12 09:50:21;;;;;;;20.30;2.28;;;18.00;33.40;;;;;;5023022;28;20093;-65
2022/05/12 09:53:01;;;;;;;9.45;2.00;;;17.90;33.50;;;;;;5023305;28;20116;-63
2022/05/12 09:55:29;;;;;;;11.02;2.20;;;18.00;33.50;;;;;;5022419;28;20091;-63
2022/05/12 09:58:05;;;;;;;9.80;1.70;;;17.90;34.00;;;;;;5024465;28;20071;-66
2022/05/12 10:00:33;;;;;;;7.80;1.67;;;17.90;33.80;;;;;;5021576;28;20424;-63
2022/05/12 10:09:10;;;;;;;10.23;1.80;;;17.80;34.10;;;;;;5023144;28;20097;-65
2022/05/12 10:11:53;;;;;;;13.88;2.42;;;17.80;34.10;;;;;;5024147;28;20097;-63
2022/05/12 10:14:41;;;;;;;8.43;2.55;;;17.70;34.30;;;;;;5026859;28;20104;-64
2022/05/12 10:17:27;;;;;;;9.35;2.30;;;17.70;34.10;;;;;;5023633;28;20107;-64
2022/05/12 10:19:54;;;;;;;16.08;2.00;;;17.60;34.20;;;;;;5023298;28;20135;-62
2022/05/12 10:22:43;;;;;;;13.07;1.80;;;17.70;34.10;;;;;;5022798;28;20069;-63
2022/05/12 10:25:21;;;;;;;15.60;1.70;;;17.70;33.90;;;;;;5022962;28;20527;-63
2022/05/12 10:28:28;;;;;;;11.65;1.80;;;17.70;33.40;;;;;;5021212;28;20096;-63
2022/05/12 10:31:22;;;;;;;11.15;2.28;;;17.70;33.20;;;;;;4914363;28;20079;-63
2022/05/12 10:34:27;;;;;;;8.02;2.15;;;17.60;33.10;;;;;;4931180;29;20528;-63
2022/05/12 10:37:33;;;;;;;14.38;1.98;;;17.70;32.70;;;;;;4931328;29;20071;-63
2022/05/12 10:40:15;;;;;;;7.18;2.05;;;17.70;33.10;;;;;;4904672;29;20142;-65
2022/05/12 10:43:06;;;;;;;8.82;2.33;;;17.70;32.90;;;;;;4931675;29;20542;-64
2022/05/12 10:46:00;;;;;;;6.03;1.92;;;17.60;32.80;;;;;;4931058;29;20083;-63
2022/05/12 10:48:48;;;;;;;10.60;2.25;;;17.70;32.90;;;;;;4930743;29;20103;-63
2022/05/12 10:51:39;;;;;;;9.00;1.90;;;17.70;32.60;;;;;;4928612;29;20095;-65
2022/05/12 10:54:17;;;;;;;9.77;2.10;;;17.70;32.60;;;;;;4930656;29;20145;-63
2022/05/12 10:56:55;;;;;;;11.68;2.30;;;17.60;32.80;;;;;;4930246;29;20161;-63
2022/05/12 10:59:37;;;;;;;10.70;2.30;;;17.60;32.80;;;;;;4932088;29;20083;-63
2022/05/12 11:02:13;;;;;;;9.55;2.10;;;17.70;33.30;;;;;;4913319;29;20089;-63
2022/05/12 11:04:55;;;;;;;7.45;1.90;;;17.70;33.40;;;;;;4931431;29;20626;-64
2022/05/12 11:07:22;;;;;;;8.07;2.05;;;17.60;33.00;;;;;;4978767;28;20081;-62
2022/05/12 11:09:50;;;;;;;;;;;17.70;32.50;;;;;;5021388;28;20077;-63
2022/05/12 11:12:28;;;;;;;16.30;1.80;;;17.60;32.20;;;;;;5020236;28;19979;-62
2022/05/12 11:15:01;;;;;;;6.97;1.75;;;17.60;32.20;;;;;;5019290;28;20084;-61
2022/05/12 11:17:42;;;;;;;7.40;1.60;;;17.60;32.10;;;;;;5021307;28;20073;-62
2022/05/12 11:20:18;;;;;;;11.57;1.90;;;17.60;32.60;;;;;;4987406;28;20783;-62
2022/05/12 11:23:23;;;;;;;12.30;1.52;;;17.60;32.20;;;;;;5020985;28;20537;-65
2022/05/12 11:26:11;;;;;;;13.35;2.22;;;17.60;32.00;;;;;;4978488;28;20192;-63
2022/05/12 11:32:27;;;;;;;6.00;1.63;;;17.60;31.80;;;;;;4968747;28;20090;-60
2022/05/12 11:35:12;;;;;;;10.35;1.55;;;17.60;31.80;;;;;;4952325;28;20117;-64
2022/05/12 11:37:38;;;;;;;15.13;1.98;;;17.60;31.60;;;;;;4983509;28;20603;-62
2022/05/12 11:40:07;;;;;;;;;;;17.50;31.90;;;;;;4982407;28;20448;-62
2022/05/12 11:45:44;;;;;;;5.97;1.45;;;17.50;31.90;;;;;;4980256;28;20120;-63
2022/05/12 11:48:16;;;;;;;8.77;2.10;;;17.40;32.00;;;;;;4964490;28;20141;-63
2022/05/12 11:50:45;;;;;;;10.02;1.98;;;17.50;31.70;;;;;;4979376;28;20174;-62
2022/05/12 11:53:19;;;;;;;8.20;1.80;;;17.40;31.70;;;;;;4980457;28;20102;-62
2022/05/12 11:56:24;;;;;;;7.95;2.08;;;17.40;31.50;;;;;;4963395;28;20077;-62
2022/05/12 11:59:24;;;;;;;4.95;1.40;;;17.40;31.60;;;;;;4930309;28;20536;-62
2022/05/12 12:01:57;;;;;;;8.88;1.88;;;17.40;31.40;;;;;;4944474;28;20082;-65
2022/05/12 12:04:47;;;;;;;17.08;1.70;;;17.30;31.30;;;;;;4942326;28;20090;-62
2022/05/12 12:07:16;;;;;;;7.55;1.92;;;17.30;31.10;;;;;;4946298;28;20076;-63
2022/05/12 12:09:43;;;;;;;12.95;1.75;;;17.20;31.20;;;;;;4959342;28;20105;-63
2022/05/12 12:12:31;;;;;;;7.15;1.95;;;17.30;31.30;;;;;;4945263;28;20101;-63
2022/05/12 12:15:03;;;;;;;22.45;2.33;;;17.20;31.40;;;;;;4944243;28;20074;-63
2022/05/12 12:17:33;;;;;;;11.55;1.90;;;17.20;31.30;;;;;;4943090;28;20075;-63
2022/05/12 12:20:09;;;;;;;9.73;2.08;;;17.20;31.20;;;;;;4941309;28;20081;-65
2022/05/12 12:22:37;;;;;;;10.70;1.95;;;17.20;31.10;;;;;;4960830;28;20152;-65
2022/05/12 12:25:33;;;;;;;11.68;2.05;;;17.20;31.20;;;;;;4944299;28;20082;-64
2022/05/12 12:30:51;;;;;;;11.02;2.38;;;17.20;30.80;;;;;;5037634;28;20097;-62
2022/05/12 12:33:36;;;;;;;15.25;2.22;;;17.20;30.60;;;;;;5036991;28;20126;-63
2022/05/12 12:36:04;;;;;;;7.70;1.90;;;17.20;30.60;;;;;;5034853;28;20072;-63
2022/05/12 12:38:46;;;;;;;11.98;2.42;;;17.20;30.50;;;;;;5037652;28;20085;-63
2022/05/12 12:41:29;;;;;;;11.15;2.55;;;17.10;30.70;;;;;;5036865;28;20069;-63
2022/05/12 12:44:05;;;;;;;11.82;2.25;;;17.20;30.90;;;;;;5034935;28;20076;-62
2022/05/12 12:47:11;;;;;;;10.73;1.80;;;17.20;30.70;;;;;;5045639;28;20080;-63
2022/05/12 12:50:07;;;;;;;9.27;1.80;;;17.10;30.60;;;;;;5054079;28;20099;-66
2022/05/12 12:52:44;;;;;;;9.35;2.10;;;17.10;30.60;;;;;;5039856;28;20163;-64
2022/05/12 12:58:43;;;;;;;19.67;2.60;;;17.00;31.40;;;;;;5043762;28;20541;-63
2022/05/12 13:01:20;;;;;;;15.57;1.90;;;17.00;31.40;;;;;;5040702;28;20076;-65
2022/05/12 13:03:56;;;;;;;11.00;1.85;;;17.00;30.90;;;;;;5036757;28;20095;-63
2022/05/12 13:06:34;;;;;;;12.88;2.03;;;16.90;31.00;;;;;;5037502;28;20450;-63
2022/05/12 13:09:05;;;;;;;8.80;2.40;;;16.90;31.20;;;;;;5042921;28;20627;-64
2022/05/12 13:11:36;;;;;;;10.13;2.10;;;16.80;31.40;;;;;;5063900;28;20089;-62
2022/05/12 13:14:03;;;;;;;14.05;2.10;;;16.80;31.70;;;;;;5040502;28;20082;-62
2022/05/12 13:16:35;;;;;;;13.82;2.10;;;16.80;31.60;;;;;;5041579;28;20084;-63
2022/05/12 13:19:01;;;;;;;8.38;1.90;;;16.90;31.40;;;;;;5043341;28;20084;-65
2022/05/12 13:21:37;;;;;;;8.23;1.88;;;16.90;31.50;;;;;;5039982;28;20080;-65
2022/05/12 13:24:06;;;;;;;12.88;2.67;;;17.00;31.40;;;;;;5021103;28;20100;-66
2022/05/12 13:26:34;;;;;;;14.35;2.67;;;17.00;31.40;;;;;;5041526;28;20080;-63
2022/05/12 13:29:01;;;;;;;9.50;2.28;;;17.00;31.50;;;;;;5041673;28;20203;-62
2022/05/12 13:31:40;;;;;;;12.73;2.28;;;17.00;31.10;;;;;;5040090;28;20149;-63
2022/05/12 13:34:12;;;;;;;16.27;2.08;;;17.00;30.90;;;;;;5041647;28;20092;-65
2022/05/12 13:36:41;;;;;;;10.20;1.65;;;17.00;30.80;;;;;;5036362;28;20131;-65